sensor_id;sensor_type;location;lat;lon;timestamp;P1;durP1;ratioP1;P2;durP2;ratioP2
58472;SDS011;44775;51.564;5.460;2022-08-25T00:03:58;9.88;;;8.93;;
58472;SDS011;44775;51.564;5.460;2022-08-25T00:06:26;13.10;;;9.85;;
58472;SDS011;44775;51.564;5.460;2022-08-25T00:08:52;11.18;;;9.80;;
58472;SDS011;44775;51.564;5.460;2022-08-25T00:11:21;10.93;;;9.82;;
58472;SDS011;44775;51.564;5.460;2022-08-25T00:13:58;10.85;;;9.73;;
58472;SDS011;44775;51.564;5.460;2022-08-25T00:16:28;11.68;;;10.55;;
58472;SDS011;44775;51.564;5.460;2022-08-25T00:18:56;14.38;;;10.40;;
58472;SDS011;44775;51.564;5.460;2022-08-25T00:21:23;13.10;;;10.07;;
58472;SDS011;44775;51.564;5.460;2022-08-25T00:23:50;11.95;;;10.65;;
58472;SDS011;44775;51.564;5.460;2022-08-25T00:26:16;10.70;;;9.70;;
58472;SDS011;44775;51.564;5.460;2022-08-25T00:28:42;11.20;;;10.02;;
58472;SDS011;44775;51.564;5.460;2022-08-25T00:31:16;11.40;;;10.00;;
58472;SDS011;44775;51.564;5.460;2022-08-25T00:33:45;10.90;;;9.90;;
58472;SDS011;44775;51.564;5.460;2022-08-25T00:36:11;12.17;;;10.37;;
58472;SDS011;44775;51.564;5.460;2022-08-25T00:38:41;11.98;;;10.65;;
58472;SDS011;44775;51.564;5.460;2022-08-25T00:41:08;12.05;;;10.82;;
58472;SDS011;44775;51.564;5.460;2022-08-25T00:46:04;12.27;;;10.98;;
58472;SDS011;44775;51.564;5.460;2022-08-25T00:48:30;11.13;;;10.05;;
58472;SDS011;44775;51.564;5.460;2022-08-25T00:50:56;13.13;;;11.75;;
58472;SDS011;44775;51.564;5.460;2022-08-25T00:53:21;12.35;;;10.95;;
58472;SDS011;44775;51.564;5.460;2022-08-25T00:55:47;12.43;;;11.07;;
58472;SDS011;44775;51.564;5.460;2022-08-25T00:58:21;13.02;;;11.73;;
58472;SDS011;44775;51.564;5.460;2022-08-25T01:00:52;14.57;;;11.95;;
58472;SDS011;44775;51.564;5.460;2022-08-25T01:03:21;13.60;;;12.02;;
58472;SDS011;44775;51.564;5.460;2022-08-25T01:08:14;14.80;;;12.77;;
58472;SDS011;44775;51.564;5.460;2022-08-25T01:10:42;13.63;;;12.27;;
58472;SDS011;44775;51.564;5.460;2022-08-25T01:13:18;14.32;;;12.95;;
58472;SDS011;44775;51.564;5.460;2022-08-25T01:15:48;15.48;;;13.75;;
58472;SDS011;44775;51.564;5.460;2022-08-25T01:18:16;15.80;;;14.30;;
58472;SDS011;44775;51.564;5.460;2022-08-25T01:23:13;16.48;;;14.70;;
58472;SDS011;44775;51.564;5.460;2022-08-25T01:28:17;17.10;;;15.27;;
58472;SDS011;44775;51.564;5.460;2022-08-25T01:30:44;17.77;;;15.80;;
58472;SDS011;44775;51.564;5.460;2022-08-25T01:33:10;17.73;;;15.95;;
58472;SDS011;44775;51.564;5.460;2022-08-25T01:35:36;17.83;;;15.90;;
58472;SDS011;44775;51.564;5.460;2022-08-25T01:38:04;16.95;;;15.25;;
58472;SDS011;44775;51.564;5.460;2022-08-25T01:40:31;18.63;;;16.48;;
58472;SDS011;44775;51.564;5.460;2022-08-25T01:43:06;18.27;;;15.90;;
58472;SDS011;44775;51.564;5.460;2022-08-25T01:45:35;17.60;;;15.82;;
58472;SDS011;44775;51.564;5.460;2022-08-25T01:48:03;17.75;;;15.60;;
58472;SDS011;44775;51.564;5.460;2022-08-25T01:50:29;17.77;;;15.98;;
58472;SDS011;44775;51.564;5.460;2022-08-25T01:53:29;17.70;;;15.75;;
58472;SDS011;44775;51.564;5.460;2022-08-25T01:55:50;17.10;;;15.35;;
58472;SDS011;44775;51.564;5.460;2022-08-25T01:58:39;17.23;;;15.35;;
58472;SDS011;44775;51.564;5.460;2022-08-25T02:01:05;17.57;;;15.83;;
58472;SDS011;44775;51.564;5.460;2022-08-25T02:03:35;17.13;;;15.40;;
58472;SDS011;44775;51.564;5.460;2022-08-25T02:06:02;16.70;;;15.02;;
58472;SDS011;44775;51.564;5.460;2022-08-25T02:08:28;18.70;;;15.20;;
58472;SDS011;44775;51.564;5.460;2022-08-25T02:10:53;17.23;;;15.02;;
58472;SDS011;44775;51.564;5.460;2022-08-25T02:13:19;17.45;;;15.77;;
58472;SDS011;44775;51.564;5.460;2022-08-25T02:15:46;17.33;;;15.52;;
58472;SDS011;44775;51.564;5.460;2022-08-25T02:18:15;18.23;;;15.55;;
58472;SDS011;44775;51.564;5.460;2022-08-25T02:20:41;16.65;;;14.68;;
58472;SDS011;44775;51.564;5.460;2022-08-25T02:23:07;17.13;;;15.10;;
58472;SDS011;44775;51.564;5.460;2022-08-25T02:25:32;17.48;;;15.68;;
58472;SDS011;44775;51.564;5.460;2022-08-25T02:27:58;16.90;;;14.90;;
58472;SDS011;44775;51.564;5.460;2022-08-25T02:30:24;17.27;;;15.48;;
58472;SDS011;44775;51.564;5.460;2022-08-25T02:32:51;19.02;;;15.02;;
58472;SDS011;44775;51.564;5.460;2022-08-25T02:35:16;18.30;;;15.70;;
58472;SDS011;44775;51.564;5.460;2022-08-25T02:37:43;17.23;;;15.48;;
58472;SDS011;44775;51.564;5.460;2022-08-25T02:40:09;19.52;;;15.23;;
58472;SDS011;44775;51.564;5.460;2022-08-25T02:42:35;17.27;;;15.38;;
58472;SDS011;44775;51.564;5.460;2022-08-25T02:45:01;17.02;;;15.30;;
58472;SDS011;44775;51.564;5.460;2022-08-25T02:47:28;17.15;;;15.48;;
58472;SDS011;44775;51.564;5.460;2022-08-25T02:49:53;16.80;;;14.98;;
58472;SDS011;44775;51.564;5.460;2022-08-25T02:52:19;17.83;;;15.23;;
58472;SDS011;44775;51.564;5.460;2022-08-25T02:54:45;19.33;;;15.05;;
58472;SDS011;44775;51.564;5.460;2022-08-25T02:57:10;16.75;;;15.00;;
58472;SDS011;44775;51.564;5.460;2022-08-25T02:59:36;17.65;;;15.20;;
58472;SDS011;44775;51.564;5.460;2022-08-25T03:02:03;16.75;;;15.00;;
58472;SDS011;44775;51.564;5.460;2022-08-25T03:04:29;18.67;;;15.60;;
58472;SDS011;44775;51.564;5.460;2022-08-25T03:06:55;19.50;;;15.32;;
58472;SDS011;44775;51.564;5.460;2022-08-25T03:09:22;19.05;;;15.35;;
58472;SDS011;44775;51.564;5.460;2022-08-25T03:11:47;17.30;;;14.95;;
58472;SDS011;44775;51.564;5.460;2022-08-25T03:14:13;19.33;;;14.80;;
58472;SDS011;44775;51.564;5.460;2022-08-25T03:16:39;17.63;;;15.55;;
58472;SDS011;44775;51.564;5.460;2022-08-25T03:19:06;16.90;;;15.25;;
58472;SDS011;44775;51.564;5.460;2022-08-25T03:21:32;18.17;;;15.70;;
58472;SDS011;44775;51.564;5.460;2022-08-25T03:23:57;16.48;;;14.88;;
58472;SDS011;44775;51.564;5.460;2022-08-25T03:26:23;20.73;;;15.70;;
58472;SDS011;44775;51.564;5.460;2022-08-25T03:29:08;18.08;;;16.15;;
58472;SDS011;44775;51.564;5.460;2022-08-25T03:31:35;19.92;;;15.82;;
58472;SDS011;44775;51.564;5.460;2022-08-25T03:34:01;18.33;;;15.43;;
58472;SDS011;44775;51.564;5.460;2022-08-25T03:36:26;17.40;;;15.13;;
58472;SDS011;44775;51.564;5.460;2022-08-25T03:38:52;19.10;;;15.52;;
58472;SDS011;44775;51.564;5.460;2022-08-25T03:41:22;17.83;;;15.85;;
58472;SDS011;44775;51.564;5.460;2022-08-25T03:43:51;17.85;;;15.95;;
58472;SDS011;44775;51.564;5.460;2022-08-25T03:46:18;21.20;;;15.50;;
58472;SDS011;44775;51.564;5.460;2022-08-25T03:48:46;17.05;;;15.25;;
58472;SDS011;44775;51.564;5.460;2022-08-25T03:51:17;19.73;;;15.15;;
58472;SDS011;44775;51.564;5.460;2022-08-25T03:53:47;18.52;;;15.18;;
58472;SDS011;44775;51.564;5.460;2022-08-25T03:56:13;23.02;;;15.48;;
58472;SDS011;44775;51.564;5.460;2022-08-25T03:58:39;16.88;;;14.68;;
58472;SDS011;44775;51.564;5.460;2022-08-25T04:01:04;22.58;;;15.75;;
58472;SDS011;44775;51.564;5.460;2022-08-25T04:03:30;19.85;;;15.93;;
58472;SDS011;44775;51.564;5.460;2022-08-25T04:05:59;21.73;;;15.45;;
58472;SDS011;44775;51.564;5.460;2022-08-25T04:08:25;16.60;;;14.90;;
58472;SDS011;44775;51.564;5.460;2022-08-25T04:10:51;16.63;;;14.93;;
58472;SDS011;44775;51.564;5.460;2022-08-25T04:13:16;17.38;;;14.57;;
58472;SDS011;44775;51.564;5.460;2022-08-25T04:15:42;17.17;;;13.60;;
58472;SDS011;44775;51.564;5.460;2022-08-25T04:18:08;15.35;;;13.38;;
58472;SDS011;44775;51.564;5.460;2022-08-25T04:20:36;17.58;;;14.38;;
58472;SDS011;44775;51.564;5.460;2022-08-25T04:23:01;15.98;;;13.73;;
58472;SDS011;44775;51.564;5.460;2022-08-25T04:25:27;16.67;;;13.70;;
58472;SDS011;44775;51.564;5.460;2022-08-25T04:27:53;16.98;;;13.65;;
58472;SDS011;44775;51.564;5.460;2022-08-25T04:30:19;14.77;;;13.00;;
58472;SDS011;44775;51.564;5.460;2022-08-25T04:32:45;18.45;;;12.80;;
58472;SDS011;44775;51.564;5.460;2022-08-25T04:35:12;16.55;;;13.05;;
58472;SDS011;44775;51.564;5.460;2022-08-25T04:37:38;20.23;;;13.18;;
58472;SDS011;44775;51.564;5.460;2022-08-25T04:40:04;15.93;;;12.32;;
58472;SDS011;44775;51.564;5.460;2022-08-25T04:42:30;16.65;;;12.63;;
58472;SDS011;44775;51.564;5.460;2022-08-25T04:44:55;13.93;;;11.90;;
58472;SDS011;44775;51.564;5.460;2022-08-25T04:47:21;19.55;;;12.57;;
58472;SDS011;44775;51.564;5.460;2022-08-25T04:49:47;19.00;;;12.18;;
58472;SDS011;44775;51.564;5.460;2022-08-25T04:52:12;13.40;;;12.00;;
58472;SDS011;44775;51.564;5.460;2022-08-25T04:54:37;15.23;;;11.30;;
58472;SDS011;44775;51.564;5.460;2022-08-25T04:57:03;20.30;;;12.30;;
58472;SDS011;44775;51.564;5.460;2022-08-25T04:59:29;16.05;;;11.32;;
58472;SDS011;44775;51.564;5.460;2022-08-25T05:01:54;13.90;;;10.40;;
58472;SDS011;44775;51.564;5.460;2022-08-25T05:04:21;14.18;;;10.95;;
58472;SDS011;44775;51.564;5.460;2022-08-25T05:06:47;17.02;;;11.10;;
58472;SDS011;44775;51.564;5.460;2022-08-25T05:09:12;15.63;;;10.73;;
58472;SDS011;44775;51.564;5.460;2022-08-25T05:11:38;16.02;;;11.10;;
58472;SDS011;44775;51.564;5.460;2022-08-25T05:14:03;12.90;;;10.43;;
58472;SDS011;44775;51.564;5.460;2022-08-25T05:16:35;15.18;;;10.80;;
58472;SDS011;44775;51.564;5.460;2022-08-25T05:19:01;16.35;;;10.95;;
58472;SDS011;44775;51.564;5.460;2022-08-25T05:21:26;16.33;;;10.90;;
58472;SDS011;44775;51.564;5.460;2022-08-25T05:23:56;14.25;;;10.55;;
58472;SDS011;44775;51.564;5.460;2022-08-25T05:26:23;14.35;;;10.25;;
58472;SDS011;44775;51.564;5.460;2022-08-25T05:28:51;15.80;;;10.48;;
58472;SDS011;44775;51.564;5.460;2022-08-25T05:31:17;15.77;;;10.35;;
58472;SDS011;44775;51.564;5.460;2022-08-25T05:33:44;12.98;;;10.10;;
58472;SDS011;44775;51.564;5.460;2022-08-25T05:36:09;15.65;;;10.20;;
58472;SDS011;44775;51.564;5.460;2022-08-25T05:38:37;12.85;;;9.80;;
58472;SDS011;44775;51.564;5.460;2022-08-25T05:41:05;14.57;;;9.88;;
58472;SDS011;44775;51.564;5.460;2022-08-25T05:43:34;13.32;;;9.65;;
58472;SDS011;44775;51.564;5.460;2022-08-25T05:46:00;11.45;;;9.57;;
58472;SDS011;44775;51.564;5.460;2022-08-25T05:48:26;10.40;;;9.38;;
58472;SDS011;44775;51.564;5.460;2022-08-25T05:50:52;13.10;;;9.85;;
58472;SDS011;44775;51.564;5.460;2022-08-25T05:53:20;12.40;;;9.82;;
58472;SDS011;44775;51.564;5.460;2022-08-25T05:55:47;16.30;;;9.02;;
58472;SDS011;44775;51.564;5.460;2022-08-25T05:58:12;14.32;;;9.57;;
58472;SDS011;44775;51.564;5.460;2022-08-25T06:00:38;12.13;;;9.75;;
58472;SDS011;44775;51.564;5.460;2022-08-25T06:03:04;16.08;;;10.00;;
58472;SDS011;44775;51.564;5.460;2022-08-25T06:05:30;12.95;;;9.15;;
58472;SDS011;44775;51.564;5.460;2022-08-25T06:07:56;12.27;;;8.77;;
58472;SDS011;44775;51.564;5.460;2022-08-25T06:10:23;11.93;;;9.27;;
58472;SDS011;44775;51.564;5.460;2022-08-25T06:12:49;11.93;;;8.50;;
58472;SDS011;44775;51.564;5.460;2022-08-25T06:15:16;16.13;;;8.90;;
58472;SDS011;44775;51.564;5.460;2022-08-25T06:17:45;12.77;;;8.95;;
58472;SDS011;44775;51.564;5.460;2022-08-25T06:20:13;12.50;;;8.85;;
58472;SDS011;44775;51.564;5.460;2022-08-25T06:22:41;10.57;;;8.80;;
58472;SDS011;44775;51.564;5.460;2022-08-25T06:25:08;24.33;;;8.43;;
58472;SDS011;44775;51.564;5.460;2022-08-25T06:27:35;11.60;;;8.40;;
58472;SDS011;44775;51.564;5.460;2022-08-25T06:30:03;14.10;;;8.23;;
58472;SDS011;44775;51.564;5.460;2022-08-25T06:32:30;11.27;;;8.40;;
58472;SDS011;44775;51.564;5.460;2022-08-25T06:34:57;10.00;;;8.00;;
58472;SDS011;44775;51.564;5.460;2022-08-25T06:37:23;11.40;;;7.63;;
58472;SDS011;44775;51.564;5.460;2022-08-25T06:39:49;11.32;;;7.28;;
58472;SDS011;44775;51.564;5.460;2022-08-25T06:42:15;14.38;;;7.10;;
58472;SDS011;44775;51.564;5.460;2022-08-25T06:44:40;12.77;;;7.00;;
58472;SDS011;44775;51.564;5.460;2022-08-25T06:47:06;10.15;;;6.55;;
58472;SDS011;44775;51.564;5.460;2022-08-25T06:49:32;10.20;;;6.13;;
58472;SDS011;44775;51.564;5.460;2022-08-25T06:51:57;11.20;;;6.28;;
58472;SDS011;44775;51.564;5.460;2022-08-25T06:54:23;6.78;;;5.53;;
58472;SDS011;44775;51.564;5.460;2022-08-25T06:56:48;10.38;;;5.78;;
58472;SDS011;44775;51.564;5.460;2022-08-25T06:59:14;8.85;;;5.20;;
58472;SDS011;44775;51.564;5.460;2022-08-25T07:01:41;7.75;;;5.47;;
58472;SDS011;44775;51.564;5.460;2022-08-25T07:04:07;13.10;;;5.65;;
58472;SDS011;44775;51.564;5.460;2022-08-25T07:06:33;10.55;;;5.28;;
58472;SDS011;44775;51.564;5.460;2022-08-25T07:08:59;8.85;;;5.00;;
58472;SDS011;44775;51.564;5.460;2022-08-25T07:11:26;15.05;;;5.20;;
58472;SDS011;44775;51.564;5.460;2022-08-25T07:13:52;8.48;;;5.00;;
58472;SDS011;44775;51.564;5.460;2022-08-25T07:16:18;8.52;;;4.90;;
58472;SDS011;44775;51.564;5.460;2022-08-25T07:18:45;8.40;;;5.03;;
58472;SDS011;44775;51.564;5.460;2022-08-25T07:21:11;8.23;;;4.95;;
58472;SDS011;44775;51.564;5.460;2022-08-25T07:23:39;9.63;;;4.68;;
58472;SDS011;44775;51.564;5.460;2022-08-25T07:28:44;7.88;;;4.32;;
58472;SDS011;44775;51.564;5.460;2022-08-25T07:31:10;10.98;;;4.00;;
58472;SDS011;44775;51.564;5.460;2022-08-25T07:33:37;14.35;;;4.43;;
58472;SDS011;44775;51.564;5.460;2022-08-25T07:36:02;6.03;;;3.75;;
58472;SDS011;44775;51.564;5.460;2022-08-25T07:38:28;8.10;;;3.65;;
58472;SDS011;44775;51.564;5.460;2022-08-25T07:41:01;8.65;;;3.97;;
58472;SDS011;44775;51.564;5.460;2022-08-25T07:43:27;7.35;;;3.72;;
58472;SDS011;44775;51.564;5.460;2022-08-25T07:45:53;6.53;;;3.50;;
58472;SDS011;44775;51.564;5.460;2022-08-25T07:48:18;5.00;;;3.40;;
58472;SDS011;44775;51.564;5.460;2022-08-25T07:50:45;5.90;;;3.53;;
58472;SDS011;44775;51.564;5.460;2022-08-25T07:53:12;7.63;;;3.67;;
58472;SDS011;44775;51.564;5.460;2022-08-25T07:55:39;6.85;;;3.53;;
58472;SDS011;44775;51.564;5.460;2022-08-25T07:58:06;6.32;;;3.35;;
58472;SDS011;44775;51.564;5.460;2022-08-25T08:00:34;8.60;;;3.13;;
58472;SDS011;44775;51.564;5.460;2022-08-25T08:03:05;10.85;;;3.10;;
58472;SDS011;44775;51.564;5.460;2022-08-25T08:05:33;8.25;;;3.35;;
58472;SDS011;44775;51.564;5.460;2022-08-25T08:08:00;6.97;;;3.10;;
58472;SDS011;44775;51.564;5.460;2022-08-25T08:10:26;5.65;;;3.05;;
58472;SDS011;44775;51.564;5.460;2022-08-25T08:12:52;6.25;;;3.10;;
58472;SDS011;44775;51.564;5.460;2022-08-25T08:15:18;6.93;;;2.92;;
58472;SDS011;44775;51.564;5.460;2022-08-25T08:17:44;10.13;;;3.42;;
58472;SDS011;44775;51.564;5.460;2022-08-25T08:20:10;8.48;;;3.10;;
58472;SDS011;44775;51.564;5.460;2022-08-25T08:22:37;6.70;;;3.00;;
58472;SDS011;44775;51.564;5.460;2022-08-25T08:25:05;6.03;;;3.10;;
58472;SDS011;44775;51.564;5.460;2022-08-25T08:27:32;7.18;;;3.10;;
58472;SDS011;44775;51.564;5.460;2022-08-25T08:29:58;6.05;;;3.08;;
58472;SDS011;44775;51.564;5.460;2022-08-25T08:32:24;6.22;;;2.92;;
58472;SDS011;44775;51.564;5.460;2022-08-25T08:34:50;6.10;;;3.00;;
58472;SDS011;44775;51.564;5.460;2022-08-25T08:37:15;6.10;;;2.78;;
58472;SDS011;44775;51.564;5.460;2022-08-25T08:39:41;5.28;;;2.83;;
58472;SDS011;44775;51.564;5.460;2022-08-25T08:42:12;5.72;;;2.80;;
58472;SDS011;44775;51.564;5.460;2022-08-25T08:45:10;5.65;;;2.60;;
58472;SDS011;44775;51.564;5.460;2022-08-25T08:47:55;5.47;;;2.60;;
58472;SDS011;44775;51.564;5.460;2022-08-25T08:56:00;9.20;;;2.90;;
58472;SDS011;44775;51.564;5.460;2022-08-25T09:00:59;5.30;;;3.00;;
58472;SDS011;44775;51.564;5.460;2022-08-25T09:05:59;6.90;;;2.80;;
58472;SDS011;44775;51.564;5.460;2022-08-25T09:08:27;5.53;;;2.88;;
58472;SDS011;44775;51.564;5.460;2022-08-25T09:16:31;6.18;;;2.58;;
58472;SDS011;44775;51.564;5.460;2022-08-25T09:33:19;5.65;;;2.70;;
58472;SDS011;44775;51.564;5.460;2022-08-25T09:35:46;6.47;;;2.50;;
58472;SDS011;44775;51.564;5.460;2022-08-25T09:38:14;4.97;;;2.40;;
58472;SDS011;44775;51.564;5.460;2022-08-25T09:40:43;7.03;;;2.47;;
58472;SDS011;44775;51.564;5.460;2022-08-25T09:45:48;5.28;;;2.70;;
58472;SDS011;44775;51.564;5.460;2022-08-25T09:48:25;3.85;;;2.70;;
58472;SDS011;44775;51.564;5.460;2022-08-25T09:51:08;7.13;;;2.40;;
58472;SDS011;44775;51.564;5.460;2022-08-25T09:53:46;4.47;;;2.20;;
58472;SDS011;44775;51.564;5.460;2022-08-25T09:56:13;4.50;;;2.42;;
58472;SDS011;44775;51.564;5.460;2022-08-25T09:58:38;7.72;;;2.75;;
58472;SDS011;44775;51.564;5.460;2022-08-25T10:01:14;9.10;;;2.33;;
58472;SDS011;44775;51.564;5.460;2022-08-25T10:03:58;5.18;;;2.50;;
58472;SDS011;44775;51.564;5.460;2022-08-25T10:06:27;5.57;;;2.30;;
58472;SDS011;44775;51.564;5.460;2022-08-25T10:08:59;3.25;;;2.30;;
58472;SDS011;44775;51.564;5.460;2022-08-25T10:11:40;7.18;;;2.33;;
58472;SDS011;44775;51.564;5.460;2022-08-25T10:16:52;5.57;;;2.30;;
58472;SDS011;44775;51.564;5.460;2022-08-25T10:19:40;8.70;;;2.70;;
58472;SDS011;44775;51.564;5.460;2022-08-25T10:22:10;3.88;;;2.20;;
58472;SDS011;44775;51.564;5.460;2022-08-25T10:24:48;9.30;;;2.33;;
58472;SDS011;44775;51.564;5.460;2022-08-25T10:33:08;5.43;;;2.40;;
58472;SDS011;44775;51.564;5.460;2022-08-25T10:44:14;4.95;;;1.90;;
58472;SDS011;44775;51.564;5.460;2022-08-25T10:49:49;4.43;;;2.22;;
58472;SDS011;44775;51.564;5.460;2022-08-25T10:58:05;4.43;;;1.92;;
58472;SDS011;44775;51.564;5.460;2022-08-25T11:00:34;4.95;;;2.40;;
58472;SDS011;44775;51.564;5.460;2022-08-25T11:03:11;6.53;;;2.60;;
58472;SDS011;44775;51.564;5.460;2022-08-25T11:11:02;5.97;;;2.92;;
58472;SDS011;44775;51.564;5.460;2022-08-25T11:13:38;5.90;;;2.90;;
58472;SDS011;44775;51.564;5.460;2022-08-25T11:16:16;10.43;;;3.10;;
58472;SDS011;44775;51.564;5.460;2022-08-25T11:18:50;5.50;;;2.60;;
58472;SDS011;44775;51.564;5.460;2022-08-25T11:21:22;8.07;;;2.45;;
58472;SDS011;44775;51.564;5.460;2022-08-25T11:24:12;4.32;;;2.67;;
58472;SDS011;44775;51.564;5.460;2022-08-25T11:26:55;5.90;;;2.83;;
58472;SDS011;44775;51.564;5.460;2022-08-25T11:29:22;6.93;;;2.80;;
58472;SDS011;44775;51.564;5.460;2022-08-25T11:31:51;6.03;;;2.90;;
58472;SDS011;44775;51.564;5.460;2022-08-25T11:34:18;6.83;;;2.60;;
58472;SDS011;44775;51.564;5.460;2022-08-25T11:36:49;4.57;;;2.50;;
58472;SDS011;44775;51.564;5.460;2022-08-25T11:40:00;5.03;;;2.50;;
58472;SDS011;44775;51.564;5.460;2022-08-25T11:42:36;6.90;;;2.63;;
58472;SDS011;44775;51.564;5.460;2022-08-25T11:53:13;5.22;;;2.08;;
58472;SDS011;44775;51.564;5.460;2022-08-25T11:56:00;5.00;;;1.95;;
58472;SDS011;44775;51.564;5.460;2022-08-25T12:01:04;5.30;;;1.90;;
58472;SDS011;44775;51.564;5.460;2022-08-25T12:04:02;3.70;;;1.88;;
58472;SDS011;44775;51.564;5.460;2022-08-25T12:06:36;4.97;;;2.10;;
58472;SDS011;44775;51.564;5.460;2022-08-25T12:09:30;4.45;;;2.20;;
58472;SDS011;44775;51.564;5.460;2022-08-25T12:11:57;6.40;;;2.40;;
58472;SDS011;44775;51.564;5.460;2022-08-25T12:27:07;4.97;;;2.20;;
58472;SDS011;44775;51.564;5.460;2022-08-25T12:30:14;5.55;;;2.03;;
58472;SDS011;44775;51.564;5.460;2022-08-25T12:43:46;4.95;;;2.03;;
58472;SDS011;44775;51.564;5.460;2022-08-25T12:54:16;7.43;;;2.00;;
58472;SDS011;44775;51.564;5.460;2022-08-25T12:56:46;5.15;;;2.10;;
58472;SDS011;44775;51.564;5.460;2022-08-25T12:59:17;3.30;;;1.92;;
58472;SDS011;44775;51.564;5.460;2022-08-25T13:04:43;4.72;;;2.05;;
58472;SDS011;44775;51.564;5.460;2022-08-25T13:13:15;4.32;;;1.90;;
58472;SDS011;44775;51.564;5.460;2022-08-25T13:16:04;7.80;;;2.63;;
58472;SDS011;44775;51.564;5.460;2022-08-25T13:18:36;4.07;;;2.08;;
58472;SDS011;44775;51.564;5.460;2022-08-25T13:21:16;4.72;;;2.30;;
58472;SDS011;44775;51.564;5.460;2022-08-25T13:23:47;4.20;;;2.05;;
58472;SDS011;44775;51.564;5.460;2022-08-25T13:26:22;4.13;;;2.00;;
58472;SDS011;44775;51.564;5.460;2022-08-25T13:28:59;6.53;;;2.00;;
58472;SDS011;44775;51.564;5.460;2022-08-25T13:31:37;3.97;;;2.10;;
58472;SDS011;44775;51.564;5.460;2022-08-25T13:34:19;5.40;;;2.40;;
58472;SDS011;44775;51.564;5.460;2022-08-25T13:36:47;5.35;;;2.00;;
58472;SDS011;44775;51.564;5.460;2022-08-25T13:39:32;5.57;;;2.28;;
58472;SDS011;44775;51.564;5.460;2022-08-25T13:41:58;5.20;;;2.28;;
58472;SDS011;44775;51.564;5.460;2022-08-25T13:44:25;3.30;;;1.90;;
58472;SDS011;44775;51.564;5.460;2022-08-25T13:49:40;6.22;;;2.00;;
58472;SDS011;44775;51.564;5.460;2022-08-25T13:52:09;2.88;;;2.00;;
58472;SDS011;44775;51.564;5.460;2022-08-25T13:54:44;4.30;;;1.73;;
58472;SDS011;44775;51.564;5.460;2022-08-25T13:57:14;7.07;;;2.10;;
58472;SDS011;44775;51.564;5.460;2022-08-25T13:59:48;3.60;;;1.98;;
58472;SDS011;44775;51.564;5.460;2022-08-25T14:02:37;6.60;;;2.00;;
58472;SDS011;44775;51.564;5.460;2022-08-25T14:05:03;2.67;;;1.85;;
58472;SDS011;44775;51.564;5.460;2022-08-25T14:07:29;5.97;;;2.03;;
58472;SDS011;44775;51.564;5.460;2022-08-25T14:12:31;7.93;;;1.80;;
58472;SDS011;44775;51.564;5.460;2022-08-25T14:17:32;4.18;;;2.00;;
58472;SDS011;44775;51.564;5.460;2022-08-25T14:19:59;4.50;;;2.15;;
58472;SDS011;44775;51.564;5.460;2022-08-25T14:22:24;3.50;;;1.85;;
58472;SDS011;44775;51.564;5.460;2022-08-25T14:24:53;5.85;;;2.17;;
58472;SDS011;44775;51.564;5.460;2022-08-25T14:27:19;2.65;;;2.05;;
58472;SDS011;44775;51.564;5.460;2022-08-25T14:29:45;6.40;;;2.15;;
58472;SDS011;44775;51.564;5.460;2022-08-25T14:32:10;4.60;;;2.05;;
58472;SDS011;44775;51.564;5.460;2022-08-25T14:34:38;4.03;;;1.90;;
58472;SDS011;44775;51.564;5.460;2022-08-25T14:37:15;3.83;;;1.80;;
58472;SDS011;44775;51.564;5.460;2022-08-25T14:39:42;3.30;;;2.00;;
58472;SDS011;44775;51.564;5.460;2022-08-25T14:42:08;3.83;;;2.00;;
58472;SDS011;44775;51.564;5.460;2022-08-25T14:44:34;3.05;;;1.90;;
58472;SDS011;44775;51.564;5.460;2022-08-25T14:47:00;3.95;;;1.90;;
58472;SDS011;44775;51.564;5.460;2022-08-25T14:49:31;3.73;;;2.13;;
58472;SDS011;44775;51.564;5.460;2022-08-25T14:52:07;3.90;;;1.67;;
58472;SDS011;44775;51.564;5.460;2022-08-25T14:54:38;5.53;;;1.83;;
58472;SDS011;44775;51.564;5.460;2022-08-25T14:57:04;2.70;;;1.63;;
58472;SDS011;44775;51.564;5.460;2022-08-25T14:59:29;4.00;;;2.10;;
58472;SDS011;44775;51.564;5.460;2022-08-25T15:01:55;4.38;;;1.90;;
58472;SDS011;44775;51.564;5.460;2022-08-25T15:04:21;3.22;;;2.00;;
58472;SDS011;44775;51.564;5.460;2022-08-25T15:06:55;6.22;;;2.03;;
58472;SDS011;44775;51.564;5.460;2022-08-25T15:09:23;4.53;;;1.80;;
58472;SDS011;44775;51.564;5.460;2022-08-25T15:11:50;4.60;;;1.90;;
58472;SDS011;44775;51.564;5.460;2022-08-25T15:14:19;5.30;;;2.28;;
58472;SDS011;44775;51.564;5.460;2022-08-25T15:16:48;4.70;;;1.80;;
58472;SDS011;44775;51.564;5.460;2022-08-25T15:19:17;3.75;;;1.90;;
58472;SDS011;44775;51.564;5.460;2022-08-25T15:21:46;3.75;;;2.00;;
58472;SDS011;44775;51.564;5.460;2022-08-25T15:24:13;3.00;;;1.95;;
58472;SDS011;44775;51.564;5.460;2022-08-25T15:26:44;5.53;;;2.08;;
58472;SDS011;44775;51.564;5.460;2022-08-25T15:29:12;4.38;;;1.95;;
58472;SDS011;44775;51.564;5.460;2022-08-25T15:31:38;4.72;;;2.08;;
58472;SDS011;44775;51.564;5.460;2022-08-25T15:34:04;4.00;;;2.08;;
58472;SDS011;44775;51.564;5.460;2022-08-25T15:36:31;4.97;;;2.05;;
58472;SDS011;44775;51.564;5.460;2022-08-25T15:38:57;3.63;;;1.90;;
58472;SDS011;44775;51.564;5.460;2022-08-25T15:41:23;6.25;;;1.80;;
58472;SDS011;44775;51.564;5.460;2022-08-25T15:43:48;6.50;;;2.17;;
58472;SDS011;44775;51.564;5.460;2022-08-25T15:46:15;3.95;;;2.10;;
58472;SDS011;44775;51.564;5.460;2022-08-25T15:48:44;4.22;;;2.33;;
58472;SDS011;44775;51.564;5.460;2022-08-25T15:51:11;7.97;;;2.30;;
58472;SDS011;44775;51.564;5.460;2022-08-25T15:53:39;4.28;;;1.95;;
58472;SDS011;44775;51.564;5.460;2022-08-25T15:56:04;4.45;;;2.00;;
58472;SDS011;44775;51.564;5.460;2022-08-25T15:58:31;3.17;;;1.98;;
58472;SDS011;44775;51.564;5.460;2022-08-25T16:00:59;3.80;;;2.08;;
58472;SDS011;44775;51.564;5.460;2022-08-25T16:03:25;4.75;;;1.98;;
58472;SDS011;44775;51.564;5.460;2022-08-25T16:05:51;2.75;;;2.00;;
58472;SDS011;44775;51.564;5.460;2022-08-25T16:08:16;3.00;;;2.03;;
58472;SDS011;44775;51.564;5.460;2022-08-25T16:10:42;4.07;;;2.17;;
58472;SDS011;44775;51.564;5.460;2022-08-25T16:13:08;4.35;;;2.10;;
58472;SDS011;44775;51.564;5.460;2022-08-25T16:15:34;3.67;;;2.10;;
58472;SDS011;44775;51.564;5.460;2022-08-25T16:18:02;2.80;;;2.08;;
58472;SDS011;44775;51.564;5.460;2022-08-25T16:20:29;4.38;;;2.40;;
58472;SDS011;44775;51.564;5.460;2022-08-25T16:22:56;5.57;;;2.40;;
58472;SDS011;44775;51.564;5.460;2022-08-25T16:25:24;3.22;;;2.20;;
58472;SDS011;44775;51.564;5.460;2022-08-25T16:27:50;4.73;;;2.30;;
58472;SDS011;44775;51.564;5.460;2022-08-25T16:30:17;4.47;;;2.40;;
58472;SDS011;44775;51.564;5.460;2022-08-25T16:32:42;5.70;;;2.90;;
58472;SDS011;44775;51.564;5.460;2022-08-25T16:35:08;6.03;;;2.90;;
58472;SDS011;44775;51.564;5.460;2022-08-25T16:37:35;3.08;;;2.30;;
58472;SDS011;44775;51.564;5.460;2022-08-25T16:40:01;4.93;;;2.88;;
58472;SDS011;44775;51.564;5.460;2022-08-25T16:42:27;4.40;;;2.50;;
58472;SDS011;44775;51.564;5.460;2022-08-25T16:44:53;4.95;;;2.40;;
58472;SDS011;44775;51.564;5.460;2022-08-25T16:47:18;4.72;;;2.60;;
58472;SDS011;44775;51.564;5.460;2022-08-25T16:49:44;6.25;;;2.65;;
58472;SDS011;44775;51.564;5.460;2022-08-25T16:52:10;6.47;;;2.63;;
58472;SDS011;44775;51.564;5.460;2022-08-25T16:54:57;7.40;;;2.70;;
58472;SDS011;44775;51.564;5.460;2022-08-25T16:57:39;6.45;;;2.47;;
58472;SDS011;44775;51.564;5.460;2022-08-25T17:00:08;6.03;;;2.70;;
58472;SDS011;44775;51.564;5.460;2022-08-25T17:02:39;6.93;;;2.67;;
58472;SDS011;44775;51.564;5.460;2022-08-25T17:05:06;5.53;;;2.67;;